Terminal Aerodrome Forecast
Issued by NWS

Home | Current Version | Previous Version | Text Only | Print | Product List | Glossary On
Versions: 1 2 3 4 5 6 7 8 9 10 11 12 13 14 15 16 17 18 19 20 21 22 23 24
000
FTUS42 KJAX 060023 AAA
TAFCRG
TAF AMD
KCRG 060023Z 0600/0624 24012G22KT P6SM VCSH SCT045 SCT130 BKN250
     FM060100 32015G30KT 5SM SHRA BR SCT030 BKN045 OVC090
     FM060300 32010G15KT P6SM VCSH SCT010 BKN020 OVC050
     FM061100 02009KT P6SM SCT008 BKN015 OVC035
     FM061500 03011G16KT P6SM VCSH BKN007 OVC020=

USA.gov is the U.S. government's official web portal to all federal, state and local government web resources and services.